aviador You're here:

YBBN Decoded Metar

BRISBANE in AUSTRALIA
Report Time2017-07-21 08:00:00
UTC Time2017-07-21 08:35:28
Flight Rules vfr VFR
Wind100° at 06 kt
W.Decomp.*RWY 14: 3.8 kt HW 4.7 kt LCW
RWY 01: 1.1 kt HW 5.9 kt RCW
W.Rank100° ranks 13
Current wind is below 100° avg. (6.9)
Visibility9999 m
Phenomena:N/A
Clouds:N/A
Expected CloudBase > 4,800 ft AGL from Temp-Dew spread
CeilingNone
Temp16°C (ISA +1)
Dew Point04°C (45% RH)
AAT12.5°C
QNH1019 hPa
Density Alt49 ft
Elevation16 ft
Report Wrong Elevation
Raw Report
METAR YBBN 210800Z 10006KT CAVOK 16/04 Q1019 NOSIG=

Extra information for YBBN:More info

Metar Taf Metar & Taf Last 4 Metars F.Rules Stats Wind Profile Meteogram Temp Stats Airport Information Weather charts Add Link Nearby VenuesMetar ALERT Operation Metar Decoded Social comments